Time,TemperatureF,DewpointF,PressureIn,WindDirection,WindDirectionDegrees,WindSpeedMPH,WindSpeedGustMPH,Humidity,HourlyPrecipIn,Conditions,Clouds,dailyrainin,SoftwareType,DateUTC
2013-03-02 00:00:00,23.1,20.4,29.99,NNW,339,1.0,2.0,89,0.00,,,0.00,LWC V2.11 B50,2013-03-02 05:00:00,
2013-03-02 00:05:00,23.0,20.3,29.99,NW,325,1.0,5.0,89,0.00,,,0.00,LWC V2.11 B50,2013-03-02 05:05:00,
2013-03-02 00:10:00,23.0,20.3,29.99,NNW,340,3.0,5.0,89,0.00,,,0.00,LWC V2.11 B50,2013-03-02 05:10:00,
2013-03-02 00:13:00,23.0,20.3,29.99,NW,318,2.0,2.0,89,0.00,,,0.00,LWC V2.11 B50,2013-03-02 05:13:00,
2013-03-02 00:16:00,22.9,20.2,29.99,North,353,2.0,2.0,89,0.00,,,0.00,LWC V2.11 B50,2013-03-02 05:16:00,
2013-03-02 00:21:00,22.9,20.2,29.99,NW,318,0.0,3.0,89,0.00,,,0.00,LWC V2.11 B50,2013-03-02 05:21:00,
2013-03-02 00:23:00,22.9,20.2,29.99,NNW,329,5.0,5.0,89,0.00,,,0.00,LWC V2.11 B50,2013-03-02 05:23:00,
2013-03-02 00:28:00,22.7,20.0,29.98,North,6,2.0,6.0,89,0.00,,,0.00,LWC V2.11 B50,2013-03-02 05:28:00,
2013-03-02 00:33:00,22.7,20.0,29.99,NW,314,1.0,2.0,89,0.00,,,0.00,LWC V2.11 B50,2013-03-02 05:33:00,
2013-03-02 00:38:00,22.7,20.2,29.99,NW,305,1.0,3.0,90,0.00,,,0.00,LWC V2.11 B50,2013-03-02 05:38:00,
2013-03-02 00:43:00,22.6,19.9,29.99,WNW,290,2.0,3.0,89,0.00,,,0.00,LWC V2.11 B50,2013-03-02 05:43:00,
2013-03-02 00:48:00,22.6,19.9,29.98,NW,320,1.0,4.0,89,0.00,,,0.00,LWC V2.11 B50,2013-03-02 05:48:00,
2013-03-02 00:53:00,22.5,19.8,29.99,NW,319,0.0,5.0,89,0.00,,,0.00,LWC V2.11 B50,2013-03-02 05:53:00,
2013-03-02 00:58:00,22.5,19.8,29.99,NW,312,0.0,3.0,89,0.00,,,0.00,LWC V2.11 B50,2013-03-02 05:58:00,
2013-03-02 01:03:00,22.4,19.7,29.99,NW,305,2.0,5.0,89,0.00,,,0.00,LWC V2.11 B50,2013-03-02 06:03:00,
2013-03-02 01:08:00,22.3,19.6,29.99,WNW,296,0.0,2.0,89,0.00,,,0.00,LWC V2.11 B50,2013-03-02 06:08:00,
2013-03-02 01:13:00,22.3,19.6,29.99,NW,304,1.0,3.0,89,0.00,,,0.00,LWC V2.11 B50,2013-03-02 06:13:00,
2013-03-02 01:18:00,22.3,19.6,29.99,NW,318,0.0,2.0,89,0.00,,,0.00,LWC V2.11 B50,2013-03-02 06:18:00,
2013-03-02 01:23:00,22.2,19.5,29.99,WNW,301,0.0,2.0,89,0.00,,,0.00,LWC V2.11 B50,2013-03-02 06:23:00,
2013-03-02 01:28:00,22.1,19.4,29.99,NW,305,2.0,7.0,89,0.00,,,0.00,LWC V2.11 B50,2013-03-02 06:28:00,
2013-03-02 01:33:00,22.1,19.6,29.99,NNW,328,1.0,2.0,90,0.00,,,0.00,LWC V2.11 B50,2013-03-02 06:33:00,
2013-03-02 01:38:00,22.1,19.6,29.99,NW,316,2.0,5.0,90,0.00,,,0.00,LWC V2.11 B50,2013-03-02 06:38:00,
2013-03-02 01:43:00,22.0,19.5,29.99,NW,320,3.0,4.0,90,0.00,,,0.00,LWC V2.11 B50,2013-03-02 06:43:00,
2013-03-02 01:48:00,22.0,19.5,29.99,NNW,332,1.0,4.0,90,0.00,,,0.00,LWC V2.11 B50,2013-03-02 06:48:00,
2013-03-02 01:53:00,22.0,19.5,29.99,NW,326,0.0,1.0,90,0.00,,,0.00,LWC V2.11 B50,2013-03-02 06:53:00,
2013-03-02 01:58:00,22.0,19.5,29.99,WNW,294,0.0,0.0,90,0.00,,,0.00,LWC V2.11 B50,2013-03-02 06:58:00,
2013-03-02 02:03:00,22.0,19.5,29.99,West,269,0.0,0.0,90,0.00,,,0.00,LWC V2.11 B50,2013-03-02 07:03:00,
2013-03-02 02:08:00,22.0,19.5,29.98,NNW,337,0.0,0.0,90,0.00,,,0.00,LWC V2.11 B50,2013-03-02 07:08:00,
2013-03-02 02:13:00,22.0,19.5,29.98,NW,316,0.0,0.0,90,0.00,,,0.00,LWC V2.11 B50,2013-03-02 07:13:00,
2013-03-02 02:18:00,22.0,19.5,29.98,West,277,0.0,1.0,90,0.00,,,0.00,LWC V2.11 B50,2013-03-02 07:18:00,
2013-03-02 02:23:00,22.0,19.5,29.98,West,280,0.0,0.0,90,0.00,,,0.00,LWC V2.11 B50,2013-03-02 07:23:00,
2013-03-02 02:28:00,22.0,19.5,29.98,NW,316,1.0,2.0,90,0.00,,,0.00,LWC V2.11 B50,2013-03-02 07:28:00,
2013-03-02 02:33:00,22.0,19.5,29.98,WSW,240,0.0,1.0,90,0.00,,,0.00,LWC V2.11 B50,2013-03-02 07:33:00,
2013-03-02 02:38:00,22.0,19.8,29.98,WNW,288,0.0,1.0,91,0.00,,,0.00,LWC V2.11 B50,2013-03-02 07:38:00,
2013-03-02 02:43:00,22.0,19.8,29.97,WNW,286,3.0,4.0,91,0.00,,,0.00,LWC V2.11 B50,2013-03-02 07:43:00,
2013-03-02 02:48:00,22.0,19.8,29.97,WNW,282,1.0,2.0,91,0.00,,,0.00,LWC V2.11 B50,2013-03-02 07:48:00,
2013-03-02 02:53:00,22.0,19.8,29.97,NW,321,3.0,5.0,91,0.00,,,0.00,LWC V2.11 B50,2013-03-02 07:53:00,
2013-03-02 02:58:00,21.9,19.7,29.97,NNW,332,2.0,3.0,91,0.00,,,0.00,LWC V2.11 B50,2013-03-02 07:58:00,
2013-03-02 03:03:00,21.9,19.7,29.97,NW,312,1.0,3.0,91,0.00,,,0.00,LWC V2.11 B50,2013-03-02 08:03:00,
2013-03-02 03:08:00,21.9,19.7,29.97,WNW,287,0.0,5.0,91,0.00,,,0.00,LWC V2.11 B50,2013-03-02 08:08:00,
2013-03-02 03:13:00,21.9,19.7,29.97,NW,319,0.0,2.0,91,0.00,,,0.00,LWC V2.11 B50,2013-03-02 08:13:00,
2013-03-02 03:18:00,21.9,19.7,29.97,NW,306,3.0,4.0,91,0.00,,,0.00,LWC V2.11 B50,2013-03-02 08:18:00,
2013-03-02 03:23:00,21.9,19.7,29.97,NW,314,0.0,1.0,91,0.00,,,0.00,LWC V2.11 B50,2013-03-02 08:23:00,
2013-03-02 03:28:00,21.9,19.7,29.97,West,279,3.0,3.0,91,0.00,,,0.00,LWC V2.11 B50,2013-03-02 08:28:00,
2013-03-02 03:33:00,21.9,19.7,29.97,NW,316,0.0,0.0,91,0.00,,,0.00,LWC V2.11 B50,2013-03-02 08:33:00,
2013-03-02 03:38:00,21.9,19.7,29.97,West,273,0.0,1.0,91,0.00,,,0.00,LWC V2.11 B50,2013-03-02 08:38:00,
2013-03-02 03:43:00,21.9,19.7,29.97,NW,326,0.0,4.0,91,0.00,,,0.00,LWC V2.11 B50,2013-03-02 08:43:00,
2013-03-02 03:48:00,21.9,19.7,29.97,NW,326,0.0,2.0,91,0.00,,,0.00,LWC V2.11 B50,2013-03-02 08:48:00,
2013-03-02 03:53:00,21.9,19.7,29.97,NNW,328,3.0,3.0,91,0.00,,,0.00,LWC V2.11 B50,2013-03-02 08:53:00,
2013-03-02 03:58:00,22.0,19.8,29.97,NW,317,0.0,1.0,91,0.00,,,0.00,LWC V2.11 B50,2013-03-02 08:58:00,
2013-03-02 04:03:00,22.0,19.8,29.97,NW,325,0.0,1.0,91,0.00,,,0.00,LWC V2.11 B50,2013-03-02 09:03:00,
2013-03-02 04:08:00,22.0,19.8,29.97,WNW,288,0.0,2.0,91,0.00,,,0.00,LWC V2.11 B50,2013-03-02 09:08:00,
2013-03-02 04:13:00,22.0,19.8,29.97,NNW,333,2.0,2.0,91,0.00,,,0.00,LWC V2.11 B50,2013-03-02 09:13:00,
2013-03-02 04:18:00,22.0,19.8,29.97,NW,304,2.0,3.0,91,0.00,,,0.00,LWC V2.11 B50,2013-03-02 09:18:00,
2013-03-02 04:23:00,22.0,19.8,29.97,NW,313,1.0,2.0,91,0.00,,,0.00,LWC V2.11 B50,2013-03-02 09:23:00,
2013-03-02 04:28:00,22.0,19.8,29.97,WNW,298,0.0,2.0,91,0.00,,,0.00,LWC V2.11 B50,2013-03-02 09:28:00,
2013-03-02 04:33:00,22.0,19.8,29.97,NNW,330,1.0,1.0,91,0.00,,,0.00,LWC V2.11 B50,2013-03-02 09:33:00,
2013-03-02 04:38:00,22.0,19.8,29.97,WNW,290,1.0,3.0,91,0.00,,,0.00,LWC V2.11 B50,2013-03-02 09:38:00,
2013-03-02 04:43:00,22.0,19.8,29.97,WNW,285,0.0,1.0,91,0.00,,,0.00,LWC V2.11 B50,2013-03-02 09:43:00,
2013-03-02 04:48:00,22.0,19.5,29.97,NW,312,1.0,4.0,90,0.00,,,0.00,LWC V2.11 B50,2013-03-02 09:48:00,
2013-03-02 04:53:00,22.0,19.5,29.97,NW,320,1.0,5.0,90,0.00,,,0.00,LWC V2.11 B50,2013-03-02 09:53:00,
2013-03-02 04:58:00,22.0,19.5,29.97,NW,307,0.0,1.0,90,0.00,,,0.00,LWC V2.11 B50,2013-03-02 09:58:00,
2013-03-02 05:03:00,22.1,19.6,29.97,NW,320,3.0,3.0,90,0.00,,,0.00,LWC V2.11 B50,2013-03-02 10:03:00,
2013-03-02 05:11:00,22.1,19.6,29.97,NNE,18,0.0,1.0,90,0.00,,,0.00,LWC V2.11 B50,2013-03-02 10:11:00,
2013-03-02 05:16:00,22.1,19.6,29.97,NNW,341,0.0,3.0,90,0.00,,,0.00,LWC V2.11 B50,2013-03-02 10:16:00,
2013-03-02 05:22:00,22.1,19.6,29.97,North,0,1.0,3.0,90,0.00,,,0.00,LWC V2.11 B50,2013-03-02 10:22:00,
2013-03-02 05:27:00,22.0,19.5,29.96,NNW,334,2.0,3.0,90,0.00,,,0.00,LWC V2.11 B50,2013-03-02 10:27:00,
2013-03-02 05:32:00,22.0,19.3,29.97,NW,315,3.0,4.0,89,0.00,,,0.00,LWC V2.11 B50,2013-03-02 10:32:00,
2013-03-02 05:37:00,22.0,19.3,29.97,NNW,336,2.0,4.0,89,0.00,,,0.00,LWC V2.11 B50,2013-03-02 10:37:00,
2013-03-02 05:42:00,22.0,19.3,29.97,NW,304,1.0,3.0,89,0.00,,,0.00,LWC V2.11 B50,2013-03-02 10:42:00,
2013-03-02 05:47:00,22.0,19.0,29.97,NNW,330,2.0,5.0,88,0.00,,,0.00,LWC V2.11 B50,2013-03-02 10:47:00,
2013-03-02 05:52:00,21.9,19.2,29.97,NNW,334,0.0,2.0,89,0.00,,,0.00,LWC V2.11 B50,2013-03-02 10:52:00,
2013-03-02 05:57:00,21.9,19.2,29.97,NW,320,0.0,1.0,89,0.00,,,0.00,LWC V2.11 B50,2013-03-02 10:57:00,
2013-03-02 06:02:00,21.8,19.1,29.97,NNW,332,0.0,3.0,89,0.00,,,0.00,LWC V2.11 B50,2013-03-02 11:02:00,
2013-03-02 06:07:00,21.9,19.4,29.97,NW,309,2.0,5.0,90,0.00,,,0.00,LWC V2.11 B50,2013-03-02 11:07:00,
2013-03-02 06:12:00,21.9,19.2,29.97,NW,312,2.0,4.0,89,0.00,,,0.00,LWC V2.11 B50,2013-03-02 11:12:00,
2013-03-02 06:17:00,21.9,19.2,29.97,NNW,328,4.0,4.0,89,0.00,,,0.00,LWC V2.11 B50,2013-03-02 11:17:00,
2013-03-02 06:22:00,21.9,19.2,29.97,NW,320,1.0,2.0,89,0.00,,,0.00,LWC V2.11 B50,2013-03-02 11:22:00,
2013-03-02 06:27:00,21.9,19.2,29.97,NNE,20,0.0,2.0,89,0.00,,,0.00,LWC V2.11 B50,2013-03-02 11:27:00,
2013-03-02 06:32:00,21.9,19.4,29.97,NNW,328,1.0,3.0,90,0.00,,,0.00,LWC V2.11 B50,2013-03-02 11:32:00,
2013-03-02 06:37:00,21.9,19.4,29.97,NNW,339,0.0,2.0,90,0.00,,,0.00,LWC V2.11 B50,2013-03-02 11:37:00,
2013-03-02 06:42:00,22.0,19.5,29.97,NW,321,1.0,3.0,90,0.00,,,0.00,LWC V2.11 B50,2013-03-02 11:42:00,
2013-03-02 06:47:00,22.1,19.6,29.97,NNW,335,2.0,3.0,90,0.00,,,0.00,LWC V2.11 B50,2013-03-02 11:47:00,
2013-03-02 06:52:00,22.1,19.6,29.97,NW,321,3.0,3.0,90,0.00,,,0.00,LWC V2.11 B50,2013-03-02 11:52:00,
2013-03-02 06:57:00,22.1,19.4,29.98,NW,326,0.0,2.0,89,0.00,,,0.00,LWC V2.11 B50,2013-03-02 11:57:00,
2013-03-02 07:02:00,22.1,19.6,29.98,NW,314,1.0,3.0,90,0.00,,,0.00,LWC V2.11 B50,2013-03-02 12:02:00,
2013-03-02 07:07:00,22.1,19.4,29.98,NW,322,1.0,2.0,89,0.00,,,0.00,LWC V2.11 B50,2013-03-02 12:07:00,
2013-03-02 07:12:00,22.1,19.6,29.98,NW,312,2.0,2.0,90,0.00,,,0.00,LWC V2.11 B50,2013-03-02 12:12:00,
2013-03-02 07:17:00,22.1,19.4,29.98,NW,309,2.0,2.0,89,0.00,,,0.00,LWC V2.11 B50,2013-03-02 12:17:00,
2013-03-02 07:22:00,22.1,19.4,29.98,WNW,283,3.0,6.0,89,0.00,,,0.00,LWC V2.11 B50,2013-03-02 12:22:00,
2013-03-02 07:27:00,22.0,19.3,29.98,NNW,333,4.0,4.0,89,0.00,,,0.00,LWC V2.11 B50,2013-03-02 12:27:00,
2013-03-02 07:32:00,22.0,19.3,29.98,NW,304,1.0,2.0,89,0.00,,,0.00,LWC V2.11 B50,2013-03-02 12:32:00,
2013-03-02 07:37:00,22.0,19.3,29.98,NNW,343,2.0,3.0,89,0.00,,,0.00,LWC V2.11 B50,2013-03-02 12:37:00,
2013-03-02 07:42:00,22.1,19.6,29.98,NW,318,1.0,1.0,90,0.00,,,0.00,LWC V2.11 B50,2013-03-02 12:42:00,
2013-03-02 07:47:00,22.1,19.6,29.98,NNE,20,0.0,1.0,90,0.00,,,0.00,LWC V2.11 B50,2013-03-02 12:47:00,
2013-03-02 07:52:00,22.1,19.6,29.98,NW,321,0.0,2.0,90,0.00,,,0.00,LWC V2.11 B50,2013-03-02 12:52:00,
2013-03-02 07:57:00,22.2,19.7,29.98,North,350,0.0,3.0,90,0.00,,,0.00,LWC V2.11 B50,2013-03-02 12:57:00,
2013-03-02 08:02:00,22.2,19.5,29.98,NW,312,1.0,4.0,89,0.00,,,0.00,LWC V2.11 B50,2013-03-02 13:02:00,
2013-03-02 08:07:00,22.2,19.7,29.99,NNW,328,2.0,3.0,90,0.00,,,0.00,LWC V2.11 B50,2013-03-02 13:07:00,
2013-03-02 08:12:00,22.2,19.5,29.99,NW,326,2.0,3.0,89,0.00,,,0.00,LWC V2.11 B50,2013-03-02 13:12:00,
2013-03-02 08:17:00,22.1,19.4,29.99,NNW,341,2.0,4.0,89,0.00,,,0.00,LWC V2.11 B50,2013-03-02 13:17:00,
2013-03-02 08:22:00,22.1,19.4,29.99,NNW,335,2.0,4.0,89,0.00,,,0.00,LWC V2.11 B50,2013-03-02 13:22:00,
2013-03-02 08:27:00,22.1,19.4,29.99,WNW,294,1.0,2.0,89,0.00,,,0.00,LWC V2.11 B50,2013-03-02 13:27:00,
2013-03-02 08:32:00,22.2,19.5,29.99,NW,309,1.0,1.0,89,0.00,,,0.00,LWC V2.11 B50,2013-03-02 13:32:00,
2013-03-02 08:37:00,22.1,19.4,29.99,NW,307,2.0,2.0,89,0.00,,,0.00,LWC V2.11 B50,2013-03-02 13:37:00,
2013-03-02 08:42:00,22.1,19.4,29.98,NNW,329,1.0,4.0,89,0.00,,,0.00,LWC V2.11 B50,2013-03-02 13:42:00,
2013-03-02 08:47:00,22.2,19.5,29.98,NNW,335,3.0,5.0,89,0.00,,,0.00,LWC V2.11 B50,2013-03-02 13:47:00,
2013-03-02 08:52:00,22.1,19.4,29.98,NNW,334,1.0,7.0,89,0.00,,,0.00,LWC V2.11 B50,2013-03-02 13:52:00,
2013-03-02 08:57:00,22.1,19.4,29.98,NNW,329,1.0,3.0,89,0.00,,,0.00,LWC V2.11 B50,2013-03-02 13:57:00,
2013-03-02 09:02:00,22.1,19.6,29.98,NW,314,5.0,5.0,90,0.00,,,0.00,LWC V2.11 B50,2013-03-02 14:02:00,
2013-03-02 09:07:00,22.1,19.4,29.98,NNW,334,2.0,7.0,89,0.00,,,0.00,LWC V2.11 B50,2013-03-02 14:07:00,
2013-03-02 09:12:00,22.0,19.3,29.98,WNW,298,3.0,4.0,89,0.00,,,0.00,LWC V2.11 B50,2013-03-02 14:12:00,
2013-03-02 09:17:00,22.0,19.3,29.98,NW,326,3.0,7.0,89,0.00,,,0.00,LWC V2.11 B50,2013-03-02 14:17:00,
2013-03-02 09:22:00,21.9,19.2,29.98,North,1,3.0,5.0,89,0.00,,,0.00,LWC V2.11 B50,2013-03-02 14:22:00,
2013-03-02 09:27:00,22.0,19.3,29.98,NNW,337,2.0,6.0,89,0.00,,,0.00,LWC V2.11 B50,2013-03-02 14:27:00,
2013-03-02 09:32:00,22.0,19.3,29.98,NW,309,1.0,4.0,89,0.00,,,0.00,LWC V2.11 B50,2013-03-02 14:32:00,
2013-03-02 09:37:00,22.0,19.0,29.98,NW,326,4.0,7.0,88,0.00,,,0.00,LWC V2.11 B50,2013-03-02 14:37:00,
2013-03-02 09:42:00,22.1,19.1,29.98,NW,325,1.0,2.0,88,0.00,,,0.00,LWC V2.11 B50,2013-03-02 14:42:00,
2013-03-02 09:47:00,22.1,19.1,29.98,WNW,301,2.0,5.0,88,0.00,,,0.00,LWC V2.11 B50,2013-03-02 14:47:00,
2013-03-02 09:52:00,22.2,19.2,29.98,NW,321,3.0,6.0,88,0.00,,,0.00,LWC V2.11 B50,2013-03-02 14:52:00,
2013-03-02 09:57:00,22.3,19.3,29.98,NNW,332,1.0,3.0,88,0.00,,,0.00,LWC V2.11 B50,2013-03-02 14:57:00,
2013-03-02 10:02:00,22.3,19.3,29.98,NNW,337,3.0,7.0,88,0.00,,,0.00,LWC V2.11 B50,2013-03-02 15:02:00,
2013-03-02 10:07:00,22.2,19.2,29.98,NW,315,0.0,3.0,88,0.00,,,0.00,LWC V2.11 B50,2013-03-02 15:07:00,
2013-03-02 10:12:00,22.2,19.2,29.98,North,354,2.0,4.0,88,0.00,,,0.00,LWC V2.11 B50,2013-03-02 15:12:00,
2013-03-02 10:17:00,22.2,19.5,29.98,NW,316,2.0,3.0,89,0.00,,,0.00,LWC V2.11 B50,2013-03-02 15:17:00,
2013-03-02 10:22:00,22.2,19.2,29.98,North,358,1.0,4.0,88,0.00,,,0.00,LWC V2.11 B50,2013-03-02 15:22:00,
2013-03-02 10:27:00,22.2,19.2,29.98,North,8,1.0,3.0,88,0.00,,,0.00,LWC V2.11 B50,2013-03-02 15:27:00,
2013-03-02 10:32:00,22.3,19.3,29.98,NW,314,3.0,4.0,88,0.00,,,0.00,LWC V2.11 B50,2013-03-02 15:32:00,
2013-03-02 10:37:00,22.4,19.1,29.98,NW,316,0.0,4.0,87,0.00,,,0.00,LWC V2.11 B50,2013-03-02 15:37:00,
2013-03-02 10:42:00,22.7,19.4,29.98,NW,312,1.0,2.0,87,0.00,,,0.00,LWC V2.11 B50,2013-03-02 15:42:00,
2013-03-02 10:47:00,22.8,19.5,29.98,NW,325,0.0,3.0,87,0.00,,,0.00,LWC V2.11 B50,2013-03-02 15:47:00,
2013-03-02 10:52:00,22.9,19.6,29.98,NW,318,2.0,2.0,87,0.00,,,0.00,LWC V2.11 B50,2013-03-02 15:52:00,
2013-03-02 10:57:00,22.8,19.3,29.98,North,352,0.0,3.0,86,0.00,,,0.00,LWC V2.11 B50,2013-03-02 15:57:00,
2013-03-02 11:02:00,22.9,19.6,29.98,NNW,327,3.0,6.0,87,0.00,,,0.00,LWC V2.11 B50,2013-03-02 16:02:00,
2013-03-02 11:07:00,22.8,19.5,29.98,North,353,5.0,5.0,87,0.00,,,0.00,LWC V2.11 B50,2013-03-02 16:07:00,
2013-03-02 11:12:00,22.7,19.7,29.98,NNW,329,1.0,3.0,88,0.00,,,0.00,LWC V2.11 B50,2013-03-02 16:12:00,
2013-03-02 11:17:00,22.5,19.5,29.98,NNW,336,4.0,6.0,88,0.00,,,0.00,LWC V2.11 B50,2013-03-02 16:17:00,
2013-03-02 11:22:00,22.4,19.4,29.98,NW,316,5.0,6.0,88,0.00,,,0.00,LWC V2.11 B50,2013-03-02 16:22:00,
2013-03-02 11:27:00,22.2,19.2,29.98,NE,40,3.0,7.0,88,0.00,,,0.00,LWC V2.11 B50,2013-03-02 16:27:00,
2013-03-02 11:33:00,22.3,19.6,29.98,NW,326,5.0,6.0,89,0.00,,,0.00,LWC V2.11 B50,2013-03-02 16:33:00,
2013-03-02 11:38:00,22.2,19.5,29.98,WNW,291,2.0,3.0,89,0.00,,,0.00,LWC V2.11 B50,2013-03-02 16:38:00,
2013-03-02 11:43:00,22.2,19.5,29.98,WNW,302,3.0,5.0,89,0.00,,,0.00,LWC V2.11 B50,2013-03-02 16:43:00,
2013-03-02 11:48:00,22.1,19.4,29.98,WNW,300,5.0,6.0,89,0.00,,,0.00,LWC V2.11 B50,2013-03-02 16:48:00,
2013-03-02 11:53:00,22.1,19.4,29.99,NNW,340,4.0,6.0,89,0.00,,,0.00,LWC V2.11 B50,2013-03-02 16:53:00,
2013-03-02 11:58:00,22.1,19.4,29.99,North,358,4.0,6.0,89,0.00,,,0.00,LWC V2.11 B50,2013-03-02 16:58:00,
2013-03-02 12:03:00,22.4,19.7,29.99,NW,308,1.0,4.0,89,0.00,,,0.00,LWC V2.11 B50,2013-03-02 17:03:00,
2013-03-02 12:08:00,22.3,19.6,29.99,NW,305,2.0,6.0,89,0.00,,,0.00,LWC V2.11 B50,2013-03-02 17:08:00,
2013-03-02 12:13:00,22.1,19.4,29.98,NW,326,3.0,7.0,89,0.00,,,0.00,LWC V2.11 B50,2013-03-02 17:13:00,
2013-03-02 12:18:00,22.0,19.3,29.99,NW,309,2.0,3.0,89,0.00,,,0.00,LWC V2.11 B50,2013-03-02 17:18:00,
2013-03-02 12:23:00,21.9,19.2,29.99,NNW,341,7.0,7.0,89,0.00,,,0.00,LWC V2.11 B50,2013-03-02 17:23:00,
2013-03-02 12:28:00,21.7,19.0,29.98,NW,307,5.0,6.0,89,0.00,,,0.00,LWC V2.11 B50,2013-03-02 17:28:00,
2013-03-02 12:33:00,21.7,19.0,29.98,NW,312,0.0,3.0,89,0.00,,,0.00,LWC V2.11 B50,2013-03-02 17:33:00,
2013-03-02 12:38:00,22.0,19.5,29.98,West,277,1.0,5.0,90,0.00,,,0.00,LWC V2.11 B50,2013-03-02 17:38:00,
2013-03-02 12:43:00,22.1,19.4,29.98,NW,326,1.0,5.0,89,0.00,,,0.00,LWC V2.11 B50,2013-03-02 17:43:00,
2013-03-02 12:48:00,22.0,19.3,29.98,WNW,295,3.0,3.0,89,0.00,,,0.00,LWC V2.11 B50,2013-03-02 17:48:00,
2013-03-02 12:53:00,22.0,19.3,29.98,WNW,293,1.0,3.0,89,0.00,,,0.00,LWC V2.11 B50,2013-03-02 17:53:00,
2013-03-02 12:58:00,22.0,19.3,29.98,WNW,293,1.0,3.0,89,0.00,,,0.00,LWC V2.11 B50,2013-03-02 17:58:00,
2013-03-02 13:03:00,22.1,19.4,29.98,NW,315,2.0,6.0,89,0.00,,,0.00,LWC V2.11 B50,2013-03-02 18:03:00,
2013-03-02 13:08:00,22.0,19.3,29.98,WNW,297,3.0,5.0,89,0.00,,,0.00,LWC V2.11 B50,2013-03-02 18:08:00,
2013-03-02 13:13:00,21.9,19.2,29.97,NW,309,1.0,5.0,89,0.00,,,0.00,LWC V2.11 B50,2013-03-02 18:13:00,
2013-03-02 13:18:00,21.9,19.4,29.97,WNW,301,1.0,2.0,90,0.00,,,0.00,LWC V2.11 B50,2013-03-02 18:18:00,
2013-03-02 13:23:00,21.8,19.1,29.97,NW,318,1.0,3.0,89,0.00,,,0.00,LWC V2.11 B50,2013-03-02 18:23:00,
2013-03-02 13:28:00,21.7,19.0,29.97,NNW,342,1.0,4.0,89,0.00,,,0.00,LWC V2.11 B50,2013-03-02 18:28:00,
2013-03-02 13:33:00,21.7,19.2,29.97,NNW,344,2.0,5.0,90,0.00,,,0.00,LWC V2.11 B50,2013-03-02 18:33:00,
2013-03-02 13:38:00,21.8,19.3,29.97,NW,322,4.0,6.0,90,0.00,,,0.00,LWC V2.11 B50,2013-03-02 18:38:00,
2013-03-02 13:43:00,21.6,18.9,29.97,West,277,2.0,5.0,89,0.00,,,0.00,LWC V2.11 B50,2013-03-02 18:43:00,
2013-03-02 13:48:00,21.5,19.0,29.97,NNW,337,3.0,8.0,90,0.00,,,0.00,LWC V2.11 B50,2013-03-02 18:48:00,
2013-03-02 13:53:00,21.7,19.2,29.97,NW,312,1.0,4.0,90,0.00,,,0.00,LWC V2.11 B50,2013-03-02 18:53:00,
2013-03-02 13:58:00,21.9,19.4,29.97,NW,304,3.0,6.0,90,0.00,,,0.00,LWC V2.11 B50,2013-03-02 18:58:00,
2013-03-02 14:03:00,21.8,19.1,29.97,WNW,294,1.0,4.0,89,0.00,,,0.00,LWC V2.11 B50,2013-03-02 19:03:00,
2013-03-02 14:08:00,21.9,19.4,29.97,WNW,287,2.0,4.0,90,0.00,,,0.00,LWC V2.11 B50,2013-03-02 19:08:00,
2013-03-02 14:13:00,22.0,19.3,29.97,NW,318,1.0,5.0,89,0.00,,,0.00,LWC V2.11 B50,2013-03-02 19:13:00,
2013-03-02 14:18:00,22.0,19.3,29.96,NW,326,4.0,6.0,89,0.00,,,0.00,LWC V2.11 B50,2013-03-02 19:18:00,
2013-03-02 14:23:00,21.9,19.2,29.97,NNW,334,2.0,7.0,89,0.00,,,0.00,LWC V2.11 B50,2013-03-02 19:23:00,
2013-03-02 14:28:00,21.8,19.3,29.96,North,354,0.0,3.0,90,0.00,,,0.00,LWC V2.11 B50,2013-03-02 19:28:00,
2013-03-02 14:33:00,21.9,19.2,29.96,NNW,337,5.0,6.0,89,0.00,,,0.00,LWC V2.11 B50,2013-03-02 19:33:00,
2013-03-02 14:38:00,21.9,19.2,29.96,NNW,343,3.0,6.0,89,0.00,,,0.00,LWC V2.11 B50,2013-03-02 19:38:00,
2013-03-02 14:43:00,21.9,19.2,29.97,NW,318,1.0,3.0,89,0.00,,,0.00,LWC V2.11 B50,2013-03-02 19:43:00,
2013-03-02 14:48:00,22.1,19.4,29.97,NW,314,3.0,7.0,89,0.00,,,0.00,LWC V2.11 B50,2013-03-02 19:48:00,
2013-03-02 14:53:00,22.1,19.1,29.96,NW,315,3.0,6.0,88,0.00,,,0.00,LWC V2.11 B50,2013-03-02 19:53:00,
2013-03-02 14:58:00,22.2,19.5,29.96,NNW,332,2.0,4.0,89,0.00,,,0.00,LWC V2.11 B50,2013-03-02 19:58:00,
2013-03-02 15:03:00,22.3,19.3,29.96,NNW,347,1.0,5.0,88,0.00,,,0.00,LWC V2.11 B50,2013-03-02 20:03:00,
2013-03-02 15:08:00,22.5,19.8,29.96,NW,320,2.0,3.0,89,0.00,,,0.00,LWC V2.11 B50,2013-03-02 20:08:00,
2013-03-02 15:13:00,22.7,19.7,29.96,West,277,4.0,4.0,88,0.00,,,0.00,LWC V2.11 B50,2013-03-02 20:13:00,
2013-03-02 15:18:00,22.6,19.6,29.96,WNW,295,2.0,3.0,88,0.00,,,0.00,LWC V2.11 B50,2013-03-02 20:18:00,
2013-03-02 15:23:00,22.6,19.6,29.96,NW,322,1.0,4.0,88,0.00,,,0.00,LWC V2.11 B50,2013-03-02 20:23:00,
2013-03-02 15:28:00,22.7,19.7,29.96,NW,316,1.0,3.0,88,0.00,,,0.00,LWC V2.11 B50,2013-03-02 20:28:00,
2013-03-02 15:33:00,22.8,19.8,29.96,WNW,291,1.0,3.0,88,0.00,,,0.00,LWC V2.11 B50,2013-03-02 20:33:00,
2013-03-02 15:38:00,22.9,19.9,29.96,NW,318,6.0,6.0,88,0.00,,,0.00,LWC V2.11 B50,2013-03-02 20:38:00,
2013-03-02 15:43:00,22.8,19.3,29.96,NW,304,2.0,6.0,86,0.00,,,0.00,LWC V2.11 B50,2013-03-02 20:43:00,
2013-03-02 15:48:00,22.7,19.4,29.96,WNW,294,0.0,4.0,87,0.00,,,0.00,LWC V2.11 B50,2013-03-02 20:48:00,
2013-03-02 15:53:00,22.7,19.4,29.96,NNW,332,1.0,4.0,87,0.00,,,0.00,LWC V2.11 B50,2013-03-02 20:53:00,
2013-03-02 15:58:00,22.7,19.4,29.96,NW,311,4.0,4.0,87,0.00,,,0.00,LWC V2.11 B50,2013-03-02 20:58:00,
2013-03-02 16:03:00,22.6,19.3,29.96,NW,317,1.0,3.0,87,0.00,,,0.00,LWC V2.11 B50,2013-03-02 21:03:00,
2013-03-02 16:08:00,22.6,19.3,29.96,WNW,298,2.0,5.0,87,0.00,,,0.00,LWC V2.11 B50,2013-03-02 21:08:00,
2013-03-02 16:13:00,22.5,19.2,29.97,WNW,302,5.0,5.0,87,0.00,,,0.00,LWC V2.11 B50,2013-03-02 21:13:00,
2013-03-02 16:18:00,22.5,19.2,29.97,North,353,3.0,6.0,87,0.00,,,0.00,LWC V2.11 B50,2013-03-02 21:18:00,
2013-03-02 16:23:00,22.4,19.1,29.97,WNW,300,3.0,6.0,87,0.00,,,0.00,LWC V2.11 B50,2013-03-02 21:23:00,
2013-03-02 16:28:00,22.5,19.5,29.97,WNW,300,1.0,5.0,88,0.00,,,0.00,LWC V2.11 B50,2013-03-02 21:28:00,
2013-03-02 16:33:00,22.5,19.5,29.97,NW,318,2.0,6.0,88,0.00,,,0.00,LWC V2.11 B50,2013-03-02 21:33:00,
2013-03-02 16:38:00,22.5,19.5,29.96,NW,325,2.0,5.0,88,0.00,,,0.00,LWC V2.11 B50,2013-03-02 21:38:00,
2013-03-02 16:43:00,22.5,19.5,29.97,NNW,340,3.0,6.0,88,0.00,,,0.00,LWC V2.11 B50,2013-03-02 21:43:00,
2013-03-02 16:48:00,22.5,19.8,29.97,NNW,332,3.0,6.0,89,0.00,,,0.00,LWC V2.11 B50,2013-03-02 21:48:00,
2013-03-02 16:53:00,22.5,19.5,29.97,NNW,332,1.0,3.0,88,0.00,,,0.00,LWC V2.11 B50,2013-03-02 21:53:00,
2013-03-02 16:58:00,22.5,19.8,29.97,NW,316,2.0,6.0,89,0.00,,,0.00,LWC V2.11 B50,2013-03-02 21:58:00,
2013-03-02 17:03:00,22.4,19.7,29.97,NNW,333,6.0,6.0,89,0.00,,,0.00,LWC V2.11 B50,2013-03-02 22:03:00,
2013-03-02 17:08:00,22.4,19.7,29.97,WNW,301,3.0,4.0,89,0.00,,,0.00,LWC V2.11 B50,2013-03-02 22:08:00,
2013-03-02 17:13:00,22.5,19.8,29.97,NW,318,2.0,5.0,89,0.00,,,0.00,LWC V2.11 B50,2013-03-02 22:13:00,
2013-03-02 17:18:00,22.5,19.8,29.97,WNW,301,0.0,4.0,89,0.00,,,0.00,LWC V2.11 B50,2013-03-02 22:18:00,
2013-03-02 17:23:00,22.5,19.8,29.97,NW,326,1.0,5.0,89,0.00,,,0.00,LWC V2.11 B50,2013-03-02 22:23:00,
2013-03-02 17:28:00,22.5,20.0,29.97,NNW,333,2.0,3.0,90,0.00,,,0.00,LWC V2.11 B50,2013-03-02 22:28:00,
2013-03-02 17:33:00,22.5,20.0,29.97,NNW,331,3.0,6.0,90,0.00,,,0.00,LWC V2.11 B50,2013-03-02 22:33:00,
2013-03-02 17:38:00,22.5,20.0,29.97,NW,308,0.0,4.0,90,0.00,,,0.00,LWC V2.11 B50,2013-03-02 22:38:00,
2013-03-02 17:43:00,22.5,20.0,29.97,NW,316,2.0,3.0,90,0.00,,,0.00,LWC V2.11 B50,2013-03-02 22:43:00,
2013-03-02 17:48:00,22.5,20.0,29.97,WNW,302,0.0,5.0,90,0.00,,,0.00,LWC V2.11 B50,2013-03-02 22:48:00,
2013-03-02 17:53:00,22.5,20.0,29.97,NNW,329,1.0,3.0,90,0.00,,,0.00,LWC V2.11 B50,2013-03-02 22:53:00,
2013-03-02 17:58:00,22.5,20.0,29.97,NW,318,2.0,5.0,90,0.00,,,0.00,LWC V2.11 B50,2013-03-02 22:58:00,
2013-03-02 18:03:00,22.5,20.0,29.97,NW,312,3.0,5.0,90,0.00,,,0.00,LWC V2.11 B50,2013-03-02 23:03:00,
2013-03-02 18:08:00,22.5,20.0,29.97,WNW,302,3.0,6.0,90,0.00,,,0.00,LWC V2.11 B50,2013-03-02 23:08:00,
2013-03-02 18:13:00,22.5,20.0,29.97,NW,305,0.0,1.0,90,0.00,,,0.00,LWC V2.11 B50,2013-03-02 23:13:00,
2013-03-02 18:18:00,22.6,20.1,29.97,NW,316,0.0,3.0,90,0.00,,,0.00,LWC V2.11 B50,2013-03-02 23:18:00,
2013-03-02 18:23:00,22.6,20.1,29.97,NW,324,0.0,2.0,90,0.00,,,0.00,LWC V2.11 B50,2013-03-02 23:23:00,
2013-03-02 18:28:00,22.6,20.1,29.97,NNW,329,3.0,4.0,90,0.00,,,0.00,LWC V2.11 B50,2013-03-02 23:28:00,
2013-03-02 18:33:00,22.6,20.1,29.97,NW,316,1.0,3.0,90,0.00,,,0.00,LWC V2.11 B50,2013-03-02 23:33:00,
2013-03-02 18:38:00,22.6,20.1,29.97,NW,309,2.0,4.0,90,0.00,,,0.00,LWC V2.11 B50,2013-03-02 23:38:00,
2013-03-02 18:43:00,22.6,20.1,29.97,NW,305,1.0,4.0,90,0.00,,,0.00,LWC V2.11 B50,2013-03-02 23:43:00,
2013-03-02 18:48:00,22.7,20.2,29.97,WNW,298,1.0,5.0,90,0.00,,,0.00,LWC V2.11 B50,2013-03-02 23:48:00,
2013-03-02 18:53:00,22.7,20.2,29.97,NW,325,2.0,4.0,90,0.00,,,0.00,LWC V2.11 B50,2013-03-02 23:53:00,
2013-03-02 18:58:00,22.7,20.2,29.97,NNW,343,6.0,6.0,90,0.00,,,0.00,LWC V2.11 B50,2013-03-02 23:58:00,
2013-03-02 19:03:00,22.7,20.2,29.97,West,269,1.0,6.0,90,0.00,,,0.00,LWC V2.11 B50,2013-03-03 00:03:00,
2013-03-02 19:08:00,22.7,20.2,29.97,West,264,5.0,5.0,90,0.00,,,0.00,LWC V2.11 B50,2013-03-03 00:08:00,
2013-03-02 19:13:00,22.7,20.2,29.97,NW,315,1.0,4.0,90,0.00,,,0.00,LWC V2.11 B50,2013-03-03 00:13:00,
2013-03-02 19:18:00,22.7,20.2,29.97,WNW,299,0.0,5.0,90,0.00,,,0.00,LWC V2.11 B50,2013-03-03 00:18:00,
2013-03-02 19:23:00,22.8,20.3,29.98,WNW,301,2.0,7.0,90,0.00,,,0.00,LWC V2.11 B50,2013-03-03 00:23:00,
2013-03-02 19:28:00,-999.0,-99.9,-100.00,North,-999,-999.0,4.0,-999,-99.99,,,0.00,LWC V2.11 B50,2013-03-03 00:28:00,
2013-03-02 19:33:00,22.7,20.2,29.97,NW,312,0.0,3.0,90,0.00,,,0.00,LWC V2.11 B50,2013-03-03 00:33:00,
2013-03-02 19:38:00,22.8,20.3,29.97,NW,314,1.0,4.0,90,0.00,,,0.00,LWC V2.11 B50,2013-03-03 00:38:00,
2013-03-02 19:43:00,22.8,20.3,29.97,WNW,292,4.0,6.0,90,0.00,,,0.00,LWC V2.11 B50,2013-03-03 00:43:00,
2013-03-02 19:48:00,22.8,20.3,29.97,NW,323,3.0,6.0,90,0.00,,,0.00,LWC V2.11 B50,2013-03-03 00:48:00,
2013-03-02 19:53:00,22.8,20.3,29.97,WNW,303,1.0,2.0,90,0.00,,,0.00,LWC V2.11 B50,2013-03-03 00:53:00,
2013-03-02 19:58:00,22.8,20.3,29.97,NNW,332,3.0,3.0,90,0.00,,,0.00,LWC V2.11 B50,2013-03-03 00:58:00,
2013-03-02 20:03:00,22.8,20.6,29.97,NW,320,0.0,1.0,91,0.00,,,0.00,LWC V2.11 B50,2013-03-03 01:03:00,
2013-03-02 20:08:00,22.8,20.6,29.97,NNW,338,6.0,7.0,91,0.00,,,0.00,LWC V2.11 B50,2013-03-03 01:08:00,
2013-03-02 20:13:00,22.9,20.7,29.97,NW,305,1.0,1.0,91,0.00,,,0.00,LWC V2.11 B50,2013-03-03 01:13:00,
2013-03-02 20:18:00,22.9,20.7,29.97,NW,321,0.0,1.0,91,0.00,,,0.00,LWC V2.11 B50,2013-03-03 01:18:00,
2013-03-02 20:23:00,22.9,20.7,29.97,NW,312,1.0,5.0,91,0.00,,,0.00,LWC V2.11 B50,2013-03-03 01:23:00,
2013-03-02 20:28:00,22.9,20.7,29.97,NNW,327,0.0,2.0,91,0.00,,,0.00,LWC V2.11 B50,2013-03-03 01:28:00,
2013-03-02 20:33:00,22.9,20.7,29.97,NNW,336,3.0,6.0,91,0.00,,,0.00,LWC V2.11 B50,2013-03-03 01:33:00,
2013-03-02 20:38:00,22.9,20.7,29.97,WNW,300,1.0,8.0,91,0.00,,,0.00,LWC V2.11 B50,2013-03-03 01:38:00,
2013-03-02 20:43:00,22.9,20.7,29.97,WNW,298,2.0,3.0,91,0.00,,,0.00,LWC V2.11 B50,2013-03-03 01:43:00,
2013-03-02 20:48:00,22.9,20.7,29.97,NW,326,2.0,5.0,91,0.00,,,0.00,LWC V2.11 B50,2013-03-03 01:48:00,
2013-03-02 20:53:00,22.9,20.7,29.97,NW,322,3.0,5.0,91,0.00,,,0.00,LWC V2.11 B50,2013-03-03 01:53:00,
2013-03-02 20:58:00,23.0,20.8,29.97,WNW,301,3.0,3.0,91,0.00,,,0.00,LWC V2.11 B50,2013-03-03 01:58:00,
2013-03-02 21:03:00,23.0,20.8,29.98,NW,326,3.0,6.0,91,0.00,,,0.00,LWC V2.11 B50,2013-03-03 02:03:00,
2013-03-02 21:08:00,23.0,20.8,29.98,WNW,301,3.0,5.0,91,0.00,,,0.00,LWC V2.11 B50,2013-03-03 02:08:00,
2013-03-02 21:13:00,23.1,20.9,29.98,NW,325,1.0,6.0,91,0.00,,,0.00,LWC V2.11 B50,2013-03-03 02:13:00,
2013-03-02 21:18:00,23.1,20.9,29.98,NW,316,5.0,5.0,91,0.00,,,0.00,LWC V2.11 B50,2013-03-03 02:18:00,
2013-03-02 21:23:00,23.1,20.9,29.98,NW,326,1.0,2.0,91,0.00,,,0.00,LWC V2.11 B50,2013-03-03 02:23:00,
2013-03-02 21:28:00,23.1,20.9,29.98,NW,305,2.0,6.0,91,0.00,,,0.00,LWC V2.11 B50,2013-03-03 02:28:00,
2013-03-02 21:33:00,23.1,20.9,29.97,NNW,336,3.0,6.0,91,0.00,,,0.00,LWC V2.11 B50,2013-03-03 02:33:00,
2013-03-02 21:38:00,23.1,20.9,29.97,NW,309,4.0,5.0,91,0.00,,,0.00,LWC V2.11 B50,2013-03-03 02:38:00,
2013-03-02 21:43:00,23.1,20.9,29.97,NW,314,3.0,3.0,91,0.00,,,0.00,LWC V2.11 B50,2013-03-03 02:43:00,
2013-03-02 21:48:00,23.1,20.6,29.97,NNW,343,7.0,7.0,90,0.00,,,0.00,LWC V2.11 B50,2013-03-03 02:48:00,
2013-03-02 21:53:00,23.1,20.6,29.97,NNW,332,6.0,6.0,90,0.00,,,0.00,LWC V2.11 B50,2013-03-03 02:53:00,
2013-03-02 21:58:00,23.1,20.6,29.97,West,277,3.0,6.0,90,0.00,,,0.00,LWC V2.11 B50,2013-03-03 02:58:00,
2013-03-02 22:03:00,23.1,20.6,29.97,WNW,301,7.0,7.0,90,0.00,,,0.00,LWC V2.11 B50,2013-03-03 03:03:00,
2013-03-02 22:08:00,23.1,20.6,29.97,NW,316,4.0,6.0,90,0.00,,,0.00,LWC V2.11 B50,2013-03-03 03:08:00,
2013-03-02 22:13:00,23.1,20.6,29.97,NW,326,3.0,4.0,90,0.00,,,0.00,LWC V2.11 B50,2013-03-03 03:13:00,
2013-03-02 22:18:00,23.1,20.6,29.97,NNW,333,3.0,5.0,90,0.00,,,0.00,LWC V2.11 B50,2013-03-03 03:18:00,
2013-03-02 22:23:00,23.0,20.5,29.97,NW,312,3.0,6.0,90,0.00,,,0.00,LWC V2.11 B50,2013-03-03 03:23:00,
2013-03-02 22:28:00,23.0,20.5,29.97,NW,321,2.0,7.0,90,0.00,,,0.00,LWC V2.11 B50,2013-03-03 03:28:00,
2013-03-02 22:33:00,22.9,20.2,29.97,NW,314,3.0,10.0,89,0.00,,,0.00,LWC V2.11 B50,2013-03-03 03:33:00,
2013-03-02 22:38:00,22.9,20.2,29.97,NW,323,4.0,4.0,89,0.00,,,0.00,LWC V2.11 B50,2013-03-03 03:38:00,
2013-03-02 22:43:00,22.8,20.3,29.97,NNW,333,1.0,4.0,90,0.00,,,0.00,LWC V2.11 B50,2013-03-03 03:43:00,
2013-03-02 22:48:00,22.8,20.3,29.96,NNW,337,2.0,5.0,90,0.00,,,0.00,LWC V2.11 B50,2013-03-03 03:48:00,
2013-03-02 22:53:00,22.7,20.0,29.97,NW,317,5.0,9.0,89,0.00,,,0.00,LWC V2.11 B50,2013-03-03 03:53:00,
2013-03-02 22:58:00,22.6,19.9,29.97,NNW,337,4.0,6.0,89,0.00,,,0.00,LWC V2.11 B50,2013-03-03 03:58:00,
2013-03-02 23:03:00,22.6,20.1,29.97,NNW,346,1.0,3.0,90,0.00,,,0.00,LWC V2.11 B50,2013-03-03 04:03:00,
2013-03-02 23:08:00,22.6,20.1,29.97,NW,324,7.0,7.0,90,0.00,,,0.00,LWC V2.11 B50,2013-03-03 04:08:00,
2013-03-02 23:13:00,22.5,19.8,29.97,NW,320,1.0,4.0,89,0.00,,,0.00,LWC V2.11 B50,2013-03-03 04:13:00,
2013-03-02 23:18:00,22.5,19.8,29.97,NNW,334,4.0,4.0,89,0.00,,,0.00,LWC V2.11 B50,2013-03-03 04:18:00,
2013-03-02 23:23:00,22.5,19.8,29.97,North,8,2.0,6.0,89,0.00,,,0.00,LWC V2.11 B50,2013-03-03 04:23:00,
2013-03-02 23:28:00,22.5,20.0,29.97,NW,312,0.0,1.0,90,0.00,,,0.00,LWC V2.11 B50,2013-03-03 04:28:00,
2013-03-02 23:33:00,22.5,20.0,29.97,NNW,329,2.0,5.0,90,0.00,,,0.00,LWC V2.11 B50,2013-03-03 04:33:00,
2013-03-02 23:38:00,22.4,19.9,29.96,NW,323,2.0,3.0,90,0.00,,,0.00,LWC V2.11 B50,2013-03-03 04:38:00,
2013-03-02 23:43:00,22.3,19.6,29.97,WNW,298,4.0,7.0,89,0.00,,,0.00,LWC V2.11 B50,2013-03-03 04:43:00,
2013-03-02 23:48:00,22.2,19.5,29.97,NW,325,2.0,7.0,89,0.00,,,0.00,LWC V2.11 B50,2013-03-03 04:48:00,
2013-03-02 23:53:00,22.1,19.4,29.96,NW,321,3.0,6.0,89,0.00,,,0.00,LWC V2.11 B50,2013-03-03 04:53:00,
2013-03-02 23:58:00,22.1,19.4,29.96,WNW,298,4.0,7.0,89,0.00,,,0.00,LWC V2.11 B50,2013-03-03 04:58:00,